Latest Coastal Weather Observations for Hopetoun North

IDW60701

Issued at 1:33 am WST Thursday 3 September 2026 (issued every 10 minutes, with the page automatically refreshed every 10 minutes)

About coastal observations | Map of coastal stations | Coastal observations for WA | Marine services | Other Formats
Station Details ID: 009961 Name: HOPETOUN NORTH Lat: -33.93 Lon: 120.13 Height: 26.0 m
Data from the previous 72 hours. | See also: Recent months at Hopetoun North
Date/Time
WST
Wind Sea
Height
m
Swell Vis
km
Cloud Weather Temp
°C
Press
MSL
hPa
Rain since
9am
mm
Dir  Spd
kts
Gust
kts
Height
m
Period
s
Dir
03/01:30am ESE 1 3 - - - - - - - 13.0 1019.8 5.8
03/01:00am CALM 0 0 - - - - - - - 13.0 1019.9 5.6
03/12:30am SSE 2 2 - - - - - - - 12.9 1019.8 5.6
03/12:00am S 6 11 - - - - - - - 12.9 1019.8 5.6
 
Date/Time
WST
Wind Sea
Height
m
Swell Vis
km
Cloud Weather Temp
°C
Press
MSL
hPa
Rain since
9am
mm
Dir  Spd
kts
Gust
kts
Height
m
Period
s
Dir
02/11:30pm S 3 4 - - - - - - - 13.0 1020.3 5.6
02/11:00pm SSW 5 7 - - - - - - - 13.0 1020.5 5.6
02/10:30pm SW 6 11 - - - - - - - 13.2 1020.7 5.4
02/10:00pm SSW 1 2 - - - - - - - 13.3 1020.7 3.8
02/09:30pm SW 1 9 - - - - - - - 13.6 1020.9 3.4
02/09:00pm CALM 0 0 - - - - - - Rain 13.5 1020.7 1.4
02/08:30pm SSW 2 4 - - - - - - - 13.3 1020.7 1.2
02/08:00pm SW 6 10 - - - - - - - 13.8 1020.6 0.6
02/07:30pm WSW 6 12 - - - - - - - 14.4 1020.2 0.0
02/07:00pm W 4 6 - - - - - - - 14.0 1019.8 0.0
02/06:30pm W 5 7 - - - - - - - 14.0 1019.5 0.0
02/06:00pm WSW 11 17 - - - - - - - 14.3 1019.4 0.0
02/05:30pm SW 7 10 - - - - - - - 14.0 1019.0 0.0
02/05:00pm SW 15 21 - - - - - - - 14.0 1018.9 0.0
02/04:30pm SW 14 21 - - - - - - - 14.8 1018.5 0.0
02/04:29pm SW 13 21 - - - - - - - 14.9 1018.4 0.0
02/04:19pm SW 15 21 - - - - - - - 16.0 1018.4 0.0
02/04:00pm SW 7 11 - - - - - - - 17.2 1017.9 0.0
02/03:30pm W 8 12 - - - - - - - 17.9 1017.8 0.0
02/03:00pm WSW 8 12 - - - - - - - 18.0 1017.6 0.0
02/02:30pm W 9 12 - - - - - - - 18.6 1017.6 0.0
02/02:00pm WSW 11 15 - - - - - - - 17.9 1017.6 0.0
02/01:30pm WSW 12 17 - - - - - - - 18.0 1017.8 0.0
02/01:00pm WSW 11 17 - - - - - - - 17.8 1017.9 0.0
02/12:30pm WSW 11 16 - - - - - - - 18.3 1018.1 0.0
02/12:00pm W 11 17 - - - - - - - 18.2 1018.3 0.0
02/11:30am W 11 16 - - - - - - - 18.1 1018.7 0.0
02/11:00am WNW 10 15 - - - - - - - 18.1 1018.9 0.0
02/10:30am W 11 16 - - - - - - - 16.6 1019.0 0.0
02/10:00am WNW 8 13 - - - - - - - 15.8 1019.1 0.0
02/09:30am WNW 11 17 - - - - - - - 15.2 1019.3 0.0
02/09:00am WNW 10 14 - - - - - - - 14.4 1019.4 0.0
02/08:30am WNW 11 17 - - - - - - - 13.7 1019.5 0.0
02/08:00am NW 8 14 - - - - - - - 13.0 1019.6 0.0
02/07:30am NW 5 7 - - - - - - - 12.1 1019.6 0.0
02/07:00am WNW 5 8 - - - - - - - 11.6 1019.6 0.0
02/06:30am WNW 7 10 - - - - - - - 10.8 1019.6 0.0
02/06:00am WNW 7 11 - - - - - - - 11.3 1019.7 0.0
02/05:30am WNW 7 11 - - - - - - - 11.3 1019.7 0.0
02/05:00am WNW 6 9 - - - - - - - 10.7 1019.6 0.0
02/04:30am WNW 6 9 - - - - - - - 10.7 1019.6 0.0
02/04:00am NW 5 8 - - - - - - - 10.1 1019.6 0.0
02/03:30am WNW 6 9 - - - - - - - 9.9 1019.6 0.0
02/03:00am NW 5 8 - - - - - - - 9.5 1019.6 0.0
02/02:30am NW 6 8 - - - - - - - 9.9 1019.8 0.0
02/02:00am NW 6 10 - - - - - - - 10.1 1019.9 0.0
02/01:30am NW 6 9 - - - - - - - 10.2 1020.2 0.0
02/01:00am NW 5 7 - - - - - - - 8.7 1020.3 0.0
02/12:30am NNW 4 7 - - - - - - - 8.9 1020.5 0.0
02/12:00am NNW 4 6 - - - - - - - 9.0 1020.7 0.0
 
Date/Time
WST
Wind Sea
Height
m
Swell Vis
km
Cloud Weather Temp
°C
Press
MSL
hPa
Rain since
9am
mm
Dir  Spd
kts
Gust
kts
Height
m
Period
s
Dir
01/11:30pm NNW 4 6 - - - - - - - 8.9 1020.9 0.0
01/11:00pm N 3 4 - - - - - - - 9.1 1021.0 0.0
01/10:30pm N 3 4 - - - - - - - 9.3 1021.3 0.0
01/10:00pm N 3 4 - - - - - - - 10.2 1021.5 0.0
01/09:30pm NNW 4 6 - - - - - - - 10.2 1021.7 0.0
01/09:00pm N 5 7 - - - - - - - 10.2 1021.9 0.0
01/08:30pm NNW 4 5 - - - - - - - 10.2 1022.0 0.0
01/08:00pm N 3 3 - - - - - - - 10.4 1022.0 0.0
01/07:30pm NE 3 4 - - - - - - - 11.6 1022.0 0.0
01/07:00pm SSE 2 2 - - - - - - - 11.8 1022.0 0.0
01/06:30pm SSE 2 2 - - - - - - - 12.6 1022.0 0.0
01/06:00pm S 2 3 - - - - - - - 12.7 1021.9 0.0
01/05:30pm S 2 4 - - - - - - - 13.7 1021.8 0.0
01/05:00pm SSW 4 5 - - - - - - - 14.4 1021.8 0.0
01/04:30pm SSW 5 7 - - - - - - - 15.3 1021.9 0.0
01/04:00pm SSW 7 10 - - - - - - - 15.7 1021.9 0.0
01/03:30pm SSW 8 11 - - - - - - - 15.9 1021.9 0.0
01/03:00pm SSW 9 12 - - - - - - - 15.6 1021.7 0.0
01/02:30pm SSW 10 15 - - - - - - - 15.8 1021.8 0.0
01/02:00pm SW 11 14 - - - - - - - 16.3 1021.8 0.0
01/01:30pm SW 10 14 - - - - - - - 16.4 1022.0 0.0
01/01:00pm SW 11 15 - - - - - - - 16.3 1022.3 0.0
01/12:30pm SW 10 14 - - - - - - - 16.5 1022.6 0.0
01/12:00pm SW 11 15 - - - - - - - 16.1 1022.8 0.0
01/11:30am SW 10 14 - - - - - - - 16.1 1023.0 0.0
01/11:00am SW 11 14 - - - - - - - 15.6 1023.1 0.0
01/10:30am WSW 10 15 - - - - - - - 15.6 1023.4 0.0
01/10:00am WSW 11 16 - - - - - - - 15.1 1023.3 0.0
01/09:30am WSW 11 16 - - - - - - - 14.4 1023.4 0.0
01/09:00am WSW 7 11 - - - - - - Recent precip. 13.9 1023.5 3.6
01/08:30am W 6 10 - - - - - - - 12.9 1023.4 3.4
01/08:00am W 4 7 - - - - - - - 11.9 1023.2 3.4
01/07:30am WNW 4 6 - - - - - - - 10.8 1023.1 3.4
01/07:00am WNW 5 7 - - - - - - - 10.4 1022.6 3.4
01/06:30am WNW 5 7 - - - - - - - 10.4 1022.2 3.4
01/06:00am WNW 4 7 - - - - - - - 10.7 1022.0 3.4
01/05:30am WNW 5 7 - - - - - - - 10.6 1021.8 3.4
01/05:00am NW 4 7 - - - - - - - 10.6 1021.4 3.4
01/04:30am WNW 3 4 - - - - - - - 10.5 1021.1 3.4
01/04:00am NW 4 6 - - - - - - - 10.5 1021.0 3.4
01/03:30am NW 4 6 - - - - - - - 10.7 1020.7 3.4
01/03:00am W 6 11 - - - - - - Recent precip. 11.1 1020.8 3.4
01/02:30am SSW 8 12 - - - - - - - 11.5 1020.9 3.4
01/02:00am SW 10 15 - - - - - - - 11.7 1021.4 2.0
01/01:30am WSW 8 11 - - - - - - - 11.9 1021.5 1.0
01/01:00am WSW 12 16 - - - - - - - 11.9 1021.5 0.8
01/12:30am SW 13 21 - - - - - - - 12.3 1021.6 0.6
01/12:00am SW 13 21 - - - - - - Recent precip. 12.2 1021.2 0.6
 
Date/Time
WST
Wind Sea
Height
m
Swell Vis
km
Cloud Weather Temp
°C
Press
MSL
hPa
Rain since
9am
mm
Dir  Spd
kts
Gust
kts
Height
m
Period
s
Dir
31/11:30pm SW 16 23 - - - - - - - 11.7 1021.2 0.6
31/11:00pm SSW 18 25 - - - - - - - 12.2 1021.0 0.2
31/10:30pm SSW 17 26 - - - - - - - 12.8 1020.8 0.0
31/10:00pm SSW 15 24 - - - - - - - 13.7 1020.7 0.0
31/09:55pm SSW 17 25 - - - - - - - 13.7 1020.7 0.0
31/09:44pm SSW 16 26 - - - - - - - 13.7 1020.5 0.0
31/09:30pm SSW 18 26 - - - - - - - 13.9 1020.3 0.0
31/09:05pm SSW 21 30 - - - - - - - 14.4 1019.6 0.0
31/09:00pm SSW 18 28 - - - - - - - 15.2 1019.4 0.0
31/08:48pm SSW 17 27 - - - - - - - 15.6 1019.2 0.0
31/08:30pm SSW 15 24 - - - - - - - 16.3 1018.8 0.0
31/08:13pm SW 17 23 - - - - - - - 17.7 1018.4 0.0
31/08:03pm WSW 10 27 - - - - - - - 19.2 1017.9 0.0
31/08:00pm W 8 12 - - - - - - - 19.7 1017.6 0.0
31/07:30pm W 10 15 - - - - - - - 20.1 1017.1 0.0
31/07:00pm W 9 14 - - - - - - - 20.7 1016.6 0.0
31/06:30pm W 8 11 - - - - - - - 21.0 1016.1 0.0
31/06:00pm W 9 13 - - - - - - - 21.2 1015.5 0.0
31/05:30pm W 10 15 - - - - - - - 21.2 1015.1 0.0
31/05:00pm W 12 19 - - - - - - - 22.5 1014.6 0.0
31/04:30pm W 14 21 - - - - - - - 22.7 1014.2 0.0
31/04:00pm W 11 17 - - - - - - - 23.8 1014.0 0.0
31/03:30pm WNW 11 18 - - - - - - - 23.7 1014.0 0.0
31/03:00pm WNW 12 26 - - - - - - - 25.2 1014.0 0.0
31/02:30pm S 7 11 - - - - - - - 21.7 1013.8 0.0
31/02:00pm SSE 10 13 - - - - - - - 20.1 1013.7 0.0
31/01:30pm SSW 7 10 - - - - - - - 23.6 1013.7 0.0
31/01:00pm SSW 7 10 - - - - - - - 24.8 1013.6 0.0
31/12:30pm WSW 8 12 - - - - - - - 24.4 1013.9 0.0
31/12:00pm WNW 10 16 - - - - - - - 25.8 1014.3 0.0
31/11:30am WNW 9 13 - - - - - - - 24.7 1014.7 0.0
31/11:00am WNW 11 17 - - - - - - - 24.4 1015.1 0.0
31/10:30am NW 8 16 - - - - - - - 24.3 1015.3 0.0
31/10:00am NW 10 14 - - - - - - - 23.2 1015.4 0.0
31/09:30am NW 11 18 - - - - - - - 22.3 1015.6 0.0
31/09:00am NW 12 19 - - - - - - - 20.9 1016.1 0.0
31/08:30am NW 11 19 - - - - - - - 20.4 1016.2 0.0
31/08:00am NNW 11 17 - - - - - - - 19.5 1016.1 0.0
31/07:30am N 9 13 - - - - - - - 17.9 1016.1 0.0
31/07:00am N 9 13 - - - - - - - 17.0 1015.9 0.0
31/06:30am N 7 11 - - - - - - - 16.3 1016.1 0.0
31/06:00am N 7 11 - - - - - - - 16.4 1015.9 0.0
31/05:30am N 9 12 - - - - - - - 16.6 1016.2 0.0
31/05:00am N 8 11 - - - - - - - 16.5 1016.3 0.0
31/04:30am N 9 14 - - - - - - - 17.1 1016.4 0.0
31/04:00am N 7 10 - - - - - - - 16.4 1016.5 0.0
31/03:30am N 9 13 - - - - - - - 17.2 1016.5 0.0
31/03:00am N 8 12 - - - - - - - 17.4 1016.6 0.0
31/02:30am N 8 11 - - - - - - - 16.9 1017.0 0.0
31/02:00am N 7 10 - - - - - - - 16.5 1017.2 0.0

Other formats

Comma delimited format used in spreadsheet applications
http://www.bom.gov.au/fwo/IDW60701/IDW60701.95635.axf

JavaScript Object Notation format (JSON) in row-major order
http://www.bom.gov.au/fwo/IDW60701/IDW60701.95635.json

Data quality

Most of these data are generated automatically and are frequently updated. Quality checks on data are not normally performed. It is possible for incorrect values to appear. Refer to information at About Latest Weather Observations and please check the disclaimer before using these data.